createdAt,value
2023-03-26T00:02:47.483Z,9.70
2023-03-26T00:07:51.587Z,8.95
2023-03-26T00:12:54.097Z,9.20
2023-03-26T00:17:56.988Z,12.67
2023-03-26T00:23:02.391Z,9.55
2023-03-26T00:28:06.221Z,9.43
2023-03-26T00:33:11.730Z,14.57
2023-03-26T00:38:16.054Z,8.63
2023-03-26T00:43:19.809Z,13.75
2023-03-26T00:48:31.512Z,11.88
2023-03-26T00:53:42.769Z,15.93
2023-03-26T00:58:46.010Z,19.75
2023-03-26T01:04:04.919Z,13.45
2023-03-26T01:09:16.876Z,15.13
2023-03-26T01:14:23.448Z,12.90
2023-03-26T01:19:30.390Z,14.35
2023-03-26T01:24:34.258Z,11.97
2023-03-26T01:29:44.016Z,15.07
2023-03-26T01:34:57.360Z,10.10
2023-03-26T01:40:06.939Z,11.18
2023-03-26T01:45:14.355Z,8.63
2023-03-26T01:50:17.129Z,11.55
2023-03-26T01:55:22.886Z,11.60
2023-03-26T02:00:30.298Z,11.07
2023-03-26T02:05:37.823Z,9.43
2023-03-26T02:10:45.004Z,10.77
2023-03-26T02:15:57.075Z,13.83
2023-03-26T02:20:59.749Z,8.67
2023-03-26T02:26:06.765Z,10.77
2023-03-26T02:31:11.133Z,12.50
2023-03-26T02:36:14.709Z,13.30
2023-03-26T02:41:18.633Z,13.20
2023-03-26T02:46:21.353Z,14.05
2023-03-26T02:51:25.141Z,8.97
2023-03-26T02:56:29.739Z,10.68
2023-03-26T03:01:34.734Z,15.30
2023-03-26T03:06:38.206Z,13.43
2023-03-26T03:11:42.376Z,9.37
2023-03-26T03:16:45.297Z,11.88
2023-03-26T03:21:47.851Z,10.57
2023-03-26T03:26:56.736Z,10.17
2023-03-26T03:32:00.064Z,8.90
2023-03-26T03:37:02.586Z,8.95
2023-03-26T03:42:06.483Z,8.90
2023-03-26T03:47:13.505Z,10.00
2023-03-26T03:52:16.335Z,11.05
2023-03-26T03:57:21.905Z,11.73
2023-03-26T04:02:30.254Z,9.53
2023-03-26T04:07:34.112Z,11.40
2023-03-26T04:12:38.040Z,10.25
2023-03-26T04:17:42.915Z,13.60
2023-03-26T04:22:45.791Z,13.25
2023-03-26T04:27:49.942Z,11.20
2023-03-26T04:32:53.071Z,11.83
2023-03-26T04:37:56.243Z,10.57
2023-03-26T04:43:02.267Z,10.70
2023-03-26T04:48:07.246Z,11.40
2023-03-26T04:53:13.941Z,9.13
2023-03-26T04:58:18.411Z,10.32
2023-03-26T05:03:21.184Z,14.70
2023-03-26T05:08:23.734Z,10.33
2023-03-26T05:13:27.631Z,13.63
2023-03-26T05:18:32.230Z,10.50
2023-03-26T05:23:34.728Z,13.10
2023-03-26T05:28:38.610Z,11.57
2023-03-26T05:33:41.210Z,10.50
2023-03-26T05:38:47.243Z,7.60
2023-03-26T05:43:51.165Z,7.70
2023-03-26T05:48:53.938Z,6.88
2023-03-26T05:53:56.459Z,7.57
2023-03-26T05:59:00.417Z,9.07
2023-03-26T06:04:03.011Z,6.78
2023-03-26T06:09:06.587Z,7.82
2023-03-26T06:14:10.420Z,6.80
2023-03-26T06:19:12.946Z,8.00
2023-03-26T06:24:16.446Z,9.07
2023-03-26T06:29:20.849Z,7.03
2023-03-26T06:34:23.340Z,7.20
2023-03-26T06:39:26.308Z,8.55
2023-03-26T06:44:30.330Z,7.68
2023-03-26T06:49:34.298Z,7.80
2023-03-26T06:54:36.832Z,7.07
2023-03-26T06:59:40.680Z,6.10
2023-03-26T07:04:43.170Z,4.63
2023-03-26T07:09:45.654Z,9.20
2023-03-26T07:14:49.716Z,6.63
2023-03-26T07:19:53.239Z,7.10
2023-03-26T07:24:56.566Z,8.50
2023-03-26T07:30:06.439Z,9.13
2023-03-26T07:35:15.547Z,7.25
2023-03-26T07:40:29.419Z,7.70
2023-03-26T07:45:39.676Z,6.50
2023-03-26T07:50:42.802Z,8.00
2023-03-26T07:55:53.397Z,7.27
2023-03-26T08:01:03.838Z,6.90
2023-03-26T08:06:14.899Z,6.88
2023-03-26T08:11:31.082Z,7.73
2023-03-26T08:16:42.752Z,7.53
2023-03-26T08:21:51.523Z,10.68
2023-03-26T08:27:01.580Z,9.63
2023-03-26T08:32:13.739Z,8.87
2023-03-26T08:37:16.340Z,12.38
2023-03-26T08:42:39.860Z,11.70
2023-03-26T08:48:21.965Z,10.43
2023-03-26T08:53:59.032Z,9.02
2023-03-26T08:59:34.804Z,14.75
2023-03-26T09:04:58.996Z,12.90
2023-03-26T09:10:33.273Z,13.33
2023-03-26T09:15:49.970Z,10.32
2023-03-26T09:21:19.071Z,13.93
2023-03-26T09:26:40.198Z,12.10
2023-03-26T09:32:15.905Z,10.82
2023-03-26T09:37:26.570Z,10.82
2023-03-26T09:42:43.693Z,12.30
2023-03-26T09:48:19.948Z,11.98
2023-03-26T09:53:41.320Z,10.95
2023-03-26T09:59:05.134Z,10.80
2023-03-26T10:04:48.526Z,15.20
2023-03-26T10:10:00.707Z,9.32
2023-03-26T10:15:18.981Z,12.57
2023-03-26T10:20:33.580Z,15.17
2023-03-26T10:25:50.461Z,14.70
2023-03-26T10:31:08.707Z,16.02
2023-03-26T10:36:26.861Z,15.77
2023-03-26T10:41:38.519Z,13.52
2023-03-26T10:46:58.552Z,18.98
2023-03-26T10:52:04.725Z,12.90
2023-03-26T10:57:15.772Z,9.47
2023-03-26T11:02:29.710Z,11.68
2023-03-26T11:07:41.581Z,15.35
2023-03-26T11:12:48.254Z,15.07
2023-03-26T11:18:01.996Z,16.80
2023-03-26T11:23:24.900Z,9.80
2023-03-26T11:28:38.903Z,12.50
2023-03-26T11:33:47.823Z,13.75
2023-03-26T11:38:51.800Z,11.40
2023-03-26T11:43:58.510Z,11.63
2023-03-26T11:49:09.107Z,12.67
2023-03-26T11:54:13.248Z,15.50
2023-03-26T11:59:21.257Z,14.40
2023-03-26T12:04:34.929Z,12.37
2023-03-26T12:09:37.544Z,12.10
2023-03-26T12:14:43.834Z,16.05
2023-03-26T12:19:48.059Z,11.97
2023-03-26T12:25:02.741Z,10.32
2023-03-26T12:30:13.812Z,17.10
2023-03-26T12:35:20.000Z,11.63
2023-03-26T12:40:31.618Z,15.37
2023-03-26T12:45:40.868Z,12.98
2023-03-26T12:51:00.208Z,15.57
2023-03-26T12:56:12.557Z,12.63
2023-03-26T13:01:23.266Z,11.13
2023-03-26T13:06:59.154Z,13.90
2023-03-26T13:12:10.995Z,14.63
2023-03-26T13:17:20.893Z,9.70
2023-03-26T13:22:32.524Z,9.75
2023-03-26T13:27:42.933Z,10.70
2023-03-26T13:32:58.598Z,13.70
2023-03-26T13:38:10.460Z,9.40
2023-03-26T13:43:38.977Z,12.32
2023-03-26T13:48:47.931Z,10.43
2023-03-26T13:53:56.772Z,11.10
2023-03-26T13:59:04.068Z,13.85
2023-03-26T14:04:15.967Z,9.67
2023-03-26T14:09:25.111Z,11.73
2023-03-26T14:14:34.683Z,11.75
2023-03-26T14:19:55.799Z,12.37
2023-03-26T14:25:14.233Z,12.20
2023-03-26T14:30:44.039Z,7.22
2023-03-26T14:35:59.042Z,16.35
2023-03-26T14:41:20.800Z,9.97
2023-03-26T14:46:37.883Z,12.60
2023-03-26T14:51:55.050Z,10.85
2023-03-26T14:57:27.066Z,12.40
2023-03-26T15:03:03.073Z,8.82
2023-03-26T15:08:54.129Z,9.18
2023-03-26T15:14:11.933Z,20.90
2023-03-26T15:19:56.034Z,13.27
2023-03-26T15:25:31.805Z,9.48
2023-03-26T15:31:16.502Z,9.05
2023-03-26T15:36:50.957Z,8.03
2023-03-26T15:41:59.309Z,10.02
2023-03-26T15:47:27.422Z,6.55
2023-03-26T15:52:36.377Z,10.63
2023-03-26T15:57:43.907Z,12.55
2023-03-26T16:02:58.109Z,9.85
2023-03-26T16:08:08.541Z,11.63
2023-03-26T16:13:38.942Z,6.70
2023-03-26T16:18:43.953Z,7.63
2023-03-26T16:23:55.077Z,7.65
2023-03-26T16:29:14.104Z,9.83
2023-03-26T16:34:28.354Z,7.55
2023-03-26T16:39:42.148Z,6.57
2023-03-26T16:44:51.670Z,6.77
2023-03-26T16:50:09.612Z,6.32
2023-03-26T16:55:20.981Z,5.07
2023-03-26T17:00:36.550Z,5.03
2023-03-26T17:05:56.880Z,7.33
2023-03-26T17:11:06.177Z,5.97
2023-03-26T17:16:18.147Z,6.25
2023-03-26T17:21:46.015Z,5.83
2023-03-26T17:26:58.580Z,9.13
2023-03-26T17:32:08.505Z,5.45
2023-03-26T17:37:31.432Z,5.73
2023-03-26T17:42:37.448Z,5.78
2023-03-26T17:47:44.861Z,4.32
2023-03-26T17:52:57.386Z,4.23
2023-03-26T17:58:02.049Z,4.80
2023-03-26T18:03:12.784Z,5.22
2023-03-26T18:08:41.229Z,5.13
2023-03-26T18:14:23.305Z,5.73
2023-03-26T18:19:26.576Z,4.82
2023-03-26T18:24:34.396Z,5.35
2023-03-26T18:29:38.040Z,7.93
2023-03-26T18:34:49.787Z,6.30
2023-03-26T18:40:02.258Z,5.32
2023-03-26T18:45:09.481Z,6.93
2023-03-26T18:50:16.504Z,8.70
2023-03-26T18:55:20.769Z,8.43
2023-03-26T19:00:26.079Z,7.45
2023-03-26T19:05:29.305Z,8.23
2023-03-26T19:10:34.407Z,7.22
2023-03-26T19:15:36.943Z,7.93
2023-03-26T19:20:43.913Z,6.93
2023-03-26T19:25:50.629Z,6.75
2023-03-26T19:30:57.448Z,8.18
2023-03-26T19:36:05.183Z,5.27
2023-03-26T19:41:21.671Z,5.03
2023-03-26T19:46:25.480Z,4.95
2023-03-26T19:51:33.621Z,5.30
2023-03-26T19:56:37.484Z,5.63
2023-03-26T20:01:40.269Z,5.90
2023-03-26T20:06:44.308Z,5.10
2023-03-26T20:11:48.355Z,5.57
2023-03-26T20:16:51.210Z,5.78
2023-03-26T20:21:54.578Z,5.35
2023-03-26T20:26:58.445Z,5.33
2023-03-26T20:32:01.116Z,7.33
2023-03-26T20:37:04.082Z,6.15
2023-03-26T20:42:08.313Z,5.65
2023-03-26T20:47:12.619Z,5.93
2023-03-26T20:52:16.017Z,5.65
2023-03-26T20:57:20.173Z,5.65
2023-03-26T21:02:23.401Z,4.67
2023-03-26T21:07:26.028Z,6.70
2023-03-26T21:12:32.506Z,5.07
2023-03-26T21:17:36.288Z,4.30
2023-03-26T21:22:46.034Z,5.07
2023-03-26T21:28:02.308Z,4.43
2023-03-26T21:33:05.439Z,5.43
2023-03-26T21:38:09.334Z,6.00
2023-03-26T21:43:13.793Z,6.65
2023-03-26T21:48:16.892Z,5.80
2023-03-26T21:53:19.908Z,4.80
2023-03-26T21:58:41.773Z,4.53
2023-03-26T22:03:55.956Z,5.28
2023-03-26T22:08:59.359Z,6.67
2023-03-26T22:14:03.217Z,5.90
2023-03-26T22:19:07.195Z,3.72
2023-03-26T22:24:09.729Z,4.45
2023-03-26T22:29:14.074Z,4.27
2023-03-26T22:34:16.670Z,5.45
2023-03-26T22:39:19.158Z,3.60
2023-03-26T22:44:22.991Z,4.23
2023-03-26T22:49:27.413Z,4.28
2023-03-26T22:54:29.930Z,7.07
2023-03-26T22:59:33.796Z,5.10
2023-03-26T23:04:37.575Z,5.27
2023-03-26T23:09:40.185Z,4.95
2023-03-26T23:14:44.015Z,4.53
2023-03-26T23:19:46.708Z,4.20
2023-03-26T23:24:49.383Z,4.60
2023-03-26T23:29:53.334Z,4.65
2023-03-26T23:34:56.344Z,5.63
2023-03-26T23:40:00.405Z,4.38
2023-03-26T23:45:04.378Z,6.05
2023-03-26T23:50:08.054Z,5.93
2023-03-26T23:55:10.831Z,5.03
